Miyakojima, Japan

7:52 AM JST on February 06, 2016 (GMT +0900)
Miyako | | Change Station
CLOSE
Current Station
Airport
Location: Miyakojima,
Elevation: 135 ft
Nearby Weather Stations

Elev 135 ft 24.79 °N, 125.28 °E | Updated 52 minutes ago

Light Rain
Light Rain
61 °F
Feels Like 61 °F
N
16
Wind Variable Wind from North

Today
High -- | Low -- °F
--% Chance of Precip.
Yesterday
High -- | Low -- °F
Precip. -- in
Pressure 30.06 in
Visibility 6.2 miles
Clouds Few 2900 ft
Scattered Clouds 4500 ft
Mostly Cloudy 9000 ft
Dew Point 50 °F
Humidity 68%
Rainfall 0.00 in
Snow Depth Not available.
7:19 AM 6:26 PM
Waning Crescent, 9% visible
METAR ROMY 052200Z 35014KT 9999 -RA FEW029 SCT045 BKN090 16/10 Q1018
Pressure 30.06 in
Visibility 6.2 miles
Clouds Few 2900 ft
Scattered Clouds 4500 ft
Mostly Cloudy 9000 ft
Dew Point 50 °F
Humidity 68%
Rainfall 0.00 in
Snow Depth Not available.
7:19 AM 6:26 PM
Waning Crescent, 9% visible
METAR ROMY 052200Z 35014KT 9999 -RA FEW029 SCT045 BKN090 16/10 Q1018

10-Day Weather Forecast

No radar image for this location.
×

Almanac

Astronomy

Feb. 06, 2016 Rise Set
Actual Time
Civil Twilight
Nautical Twilight
Astronomical Twilight
Moon
Length of Visible Light
Length of Day
Tomorrow will be .
, % of the Moon is Illuminated

Today's Extremes

Country Highs Country Lows

Community

WunderPhotos

Upload Photos

1,890,875 photos uploaded!

WunderBlog® & News

Nearby

Air Quality

  Air Quality AQ Index Pollutant
Not available.

Snow Depth

Station Depth Elevation

Earthquake Activity

City Distance Mag. Time & Date
Minimum magnitude displayed is 2.5.

Coastal Water Temperatures

Place Temperature

Stations

Nearby Weather Stations

Station Location Temp. Windchill Dew Point Humidity Wind Precip. Elev Updated Type